Time;durP1;ratioP1;P1;durP2;ratioP2;P2;SDS_P1;SDS_P2;PMS_P1;PMS_P2;Temp;Humidity;BMP_temperature;BMP_pressure;BME280_temperature;BME280_humidity;BME280_pressure;Samples;Min_cycle;Max_cycle;Signal;HPM_P1;HPM_P2
2024/01/31 00:01:21;;;;;;;29.13;19.27;;;7.40;99.90;;;;;;5115801;28;20279;-66
2024/01/31 00:03:47;;;;;;;29.67;19.83;;;7.40;99.90;;;;;;5115700;28;20233;-66
2024/01/31 00:06:13;;;;;;;26.80;15.90;;;7.40;99.90;;;;;;5115900;28;20208;-66
2024/01/31 00:08:39;;;;;;;23.33;15.27;;;7.30;99.90;;;;;;5114052;28;20670;-66
2024/01/31 00:11:06;;;;;;;20.93;14.33;;;7.20;99.90;;;;;;5115331;28;20283;-66
2024/01/31 00:13:32;;;;;;;17.00;12.73;;;7.10;99.90;;;;;;5115231;28;20168;-66
2024/01/31 00:15:58;;;;;;;19.47;11.80;;;7.10;99.90;;;;;;5115800;28;20168;-66
2024/01/31 00:18:24;;;;;;;12.63;9.67;;;7.00;99.90;;;;;;5115197;28;20700;-66
2024/01/31 00:20:49;;;;;;;12.03;9.13;;;7.00;99.90;;;;;;5115580;28;20538;-66
2024/01/31 00:23:15;;;;;;;13.00;9.13;;;6.90;99.90;;;;;;5115706;27;20161;-66
2024/01/31 00:25:41;;;;;;;10.93;8.20;;;6.80;99.90;;;;;;5114879;28;20290;-66
2024/01/31 00:28:06;;;;;;;10.90;8.07;;;6.80;99.90;;;;;;5113870;28;20226;-66
2024/01/31 00:30:32;;;;;;;14.00;8.03;;;6.80;99.90;;;;;;5115202;28;20172;-68
2024/01/31 00:32:58;;;;;;;10.13;7.40;;;6.80;99.90;;;;;;5115019;28;20189;-68
2024/01/31 00:35:24;;;;;;;13.03;8.17;;;6.80;99.90;;;;;;5115214;28;20180;-69
2024/01/31 00:37:50;;;;;;;12.33;8.73;;;6.70;99.90;;;;;;5114847;28;20172;-68
2024/01/31 00:40:16;;;;;;;15.17;9.37;;;6.70;99.90;;;;;;5114397;28;20168;-68
2024/01/31 00:42:42;;;;;;;13.87;8.53;;;6.60;99.90;;;;;;5115515;28;20222;-69
2024/01/31 00:45:09;;;;;;;14.20;9.17;;;6.60;99.90;;;;;;5116122;28;20183;-69
2024/01/31 00:47:34;;;;;;;14.87;9.47;;;6.60;99.90;;;;;;5115780;28;20171;-68
2024/01/31 00:50:00;;;;;;;11.27;8.33;;;6.50;99.90;;;;;;5114418;28;20211;-68
2024/01/31 00:52:26;;;;;;;14.03;9.57;;;6.50;99.90;;;;;;5114843;28;20201;-68
2024/01/31 00:54:52;;;;;;;13.57;8.67;;;6.50;99.90;;;;;;5114253;28;20639;-69
2024/01/31 00:57:18;;;;;;;14.40;8.23;;;6.50;99.90;;;;;;5114425;28;20165;-68
2024/01/31 00:59:44;;;;;;;14.03;8.93;;;6.50;99.90;;;;;;5113037;28;20236;-68
2024/01/31 01:02:10;;;;;;;13.97;9.20;;;6.50;99.90;;;;;;5114411;28;20211;-68
2024/01/31 01:04:36;;;;;;;17.33;9.70;;;6.50;99.90;;;;;;5114704;28;20163;-69
2024/01/31 01:07:02;;;;;;;19.00;10.40;;;6.50;99.90;;;;;;5114523;28;20179;-68
2024/01/31 01:09:28;;;;;;;12.90;9.43;;;6.50;99.90;;;;;;5114019;28;20201;-68
2024/01/31 01:11:53;;;;;;;17.83;9.60;;;6.40;99.90;;;;;;5114105;28;20228;-68
2024/01/31 01:14:19;;;;;;;20.07;10.07;;;6.40;99.90;;;;;;5114214;28;20183;-66
2024/01/31 01:16:45;;;;;;;16.03;10.13;;;6.50;99.90;;;;;;5114028;28;20207;-66
2024/01/31 01:19:11;;;;;;;20.03;10.23;;;6.40;99.90;;;;;;5114722;28;20179;-66
2024/01/31 01:21:36;;;;;;;17.40;10.63;;;6.50;99.90;;;;;;5112697;28;20247;-66
2024/01/31 01:24:02;;;;;;;17.87;10.90;;;6.50;99.90;;;;;;5114341;28;20200;-66
2024/01/31 01:26:28;;;;;;;19.40;11.87;;;6.40;99.90;;;;;;5114180;27;20198;-66
2024/01/31 01:28:54;;;;;;;15.77;11.17;;;6.40;99.90;;;;;;5113009;28;20177;-66
2024/01/31 01:31:21;;;;;;;23.30;11.47;;;6.50;99.90;;;;;;5114108;28;20204;-66
2024/01/31 01:33:46;;;;;;;19.73;11.57;;;6.50;99.90;;;;;;5114306;28;20164;-66
2024/01/31 01:36:12;;;;;;;20.77;11.17;;;6.50;99.90;;;;;;5112717;28;20172;-66
2024/01/31 01:38:38;;;;;;;17.63;10.90;;;6.50;99.90;;;;;;5113622;28;20188;-67
2024/01/31 01:41:04;;;;;;;20.03;11.73;;;6.50;99.90;;;;;;5113932;28;20204;-66
2024/01/31 01:43:30;;;;;;;14.00;11.60;;;6.50;99.90;;;;;;5114189;28;20650;-66
2024/01/31 01:46:09;;;;;;;21.57;11.67;;;6.50;99.90;;;;;;5112493;28;20218;-66
2024/01/31 01:48:35;;;;;;;22.10;12.30;;;6.50;99.90;;;;;;5114231;28;20566;-66
2024/01/31 01:51:02;;;;;;;17.97;11.80;;;6.50;99.90;;;;;;5113508;28;20676;-66
2024/01/31 01:53:30;;;;;;;21.70;12.63;;;6.50;99.90;;;;;;5114211;28;20504;-66
2024/01/31 01:55:56;;;;;;;19.90;13.40;;;6.50;99.90;;;;;;5113329;28;20164;-66
2024/01/31 01:58:22;;;;;;;18.90;12.30;;;6.50;99.90;;;;;;5113663;28;20546;-66
2024/01/31 02:00:48;;;;;;;22.77;12.83;;;6.60;99.90;;;;;;5113802;28;20169;-66
2024/01/31 02:03:17;;;;;;;19.43;12.50;;;6.60;99.90;;;;;;5117161;28;20188;-66
2024/01/31 02:05:46;;;;;;;19.10;13.40;;;6.60;99.90;;;;;;5117704;28;20165;-66
2024/01/31 02:08:13;;;;;;;23.33;14.87;;;6.60;99.90;;;;;;5117678;28;20168;-66
2024/01/31 02:10:39;;;;;;;25.50;14.30;;;6.50;99.90;;;;;;5117557;28;20188;-66
2024/01/31 02:13:04;;;;;;;28.87;15.80;;;6.60;99.90;;;;;;5117888;28;20212;-66
2024/01/31 02:15:30;;;;;;;23.27;14.53;;;6.60;99.90;;;;;;5118269;28;20212;-66
2024/01/31 02:17:56;;;;;;;26.50;14.70;;;6.60;99.90;;;;;;5118333;28;20176;-67
2024/01/31 02:20:23;;;;;;;22.93;14.37;;;6.60;99.90;;;;;;5118387;28;20599;-66
2024/01/31 02:22:48;;;;;;;22.63;15.00;;;6.60;99.90;;;;;;5117961;27;20199;-66
2024/01/31 02:25:15;;;;;;;23.07;14.00;;;6.50;99.90;;;;;;5117209;28;20169;-66
2024/01/31 02:27:41;;;;;;;21.57;14.13;;;6.50;99.90;;;;;;5117992;28;20259;-66
2024/01/31 02:30:07;;;;;;;27.67;14.13;;;6.50;99.90;;;;;;5117513;28;20212;-66
2024/01/31 02:32:34;;;;;;;32.73;15.33;;;6.50;99.90;;;;;;5117204;28;20211;-66
2024/01/31 02:34:59;;;;;;;21.90;14.87;;;6.50;99.90;;;;;;5117291;28;20537;-66
2024/01/31 02:37:25;;;;;;;26.37;14.43;;;6.50;99.90;;;;;;5115970;28;20183;-66
2024/01/31 02:39:52;;;;;;;20.90;13.70;;;6.50;99.90;;;;;;5117160;28;20689;-65
2024/01/31 02:42:18;;;;;;;22.73;13.47;;;6.50;99.90;;;;;;5115742;28;20200;-65
2024/01/31 02:44:44;;;;;;;26.23;14.17;;;6.50;99.90;;;;;;5116928;28;20527;-66
2024/01/31 02:47:09;;;;;;;20.47;13.57;;;6.50;99.90;;;;;;5117227;28;20183;-66
2024/01/31 02:49:35;;;;;;;24.50;13.30;;;6.40;99.90;;;;;;5116997;28;20177;-66
2024/01/31 02:52:01;;;;;;;25.23;14.27;;;6.40;99.90;;;;;;5115770;28;20218;-66
2024/01/31 02:54:27;;;;;;;22.60;13.37;;;6.40;99.90;;;;;;5116696;28;20598;-66
2024/01/31 02:56:52;;;;;;;23.73;13.53;;;6.40;99.90;;;;;;5116946;27;20200;-66
2024/01/31 02:59:20;;;;;;;22.30;13.83;;;6.40;99.90;;;;;;5115567;28;20177;-66
2024/01/31 03:01:46;;;;;;;23.57;12.73;;;6.40;99.90;;;;;;5116884;28;20185;-67
2024/01/31 03:04:12;;;;;;;19.07;14.07;;;6.50;99.90;;;;;;5117394;28;20175;-66
2024/01/31 03:06:38;;;;;;;26.07;13.23;;;6.50;99.90;;;;;;5116625;28;20173;-66
2024/01/31 03:09:05;;;;;;;21.33;12.53;;;6.50;99.90;;;;;;5116655;28;20250;-66
2024/01/31 03:11:31;;;;;;;20.30;13.33;;;6.50;99.90;;;;;;5116956;28;20250;-66
2024/01/31 03:13:56;;;;;;;18.10;12.27;;;6.50;99.90;;;;;;5116294;28;20183;-66
2024/01/31 03:16:22;;;;;;;21.93;13.07;;;6.50;99.90;;;;;;5116447;28;20165;-66
2024/01/31 03:18:48;;;;;;;22.13;13.53;;;6.50;99.90;;;;;;5116641;28;20172;-66
2024/01/31 03:21:14;;;;;;;19.13;13.10;;;6.50;99.90;;;;;;5116432;28;20196;-65
2024/01/31 03:23:39;;;;;;;18.00;11.80;;;6.50;99.90;;;;;;5116228;28;20171;-66
2024/01/31 03:26:05;;;;;;;16.23;10.77;;;6.50;99.90;;;;;;5116111;28;20522;-66
2024/01/31 03:28:32;;;;;;;17.37;11.47;;;6.40;99.90;;;;;;5116658;28;20543;-67
2024/01/31 03:30:58;;;;;;;18.63;10.00;;;6.30;99.90;;;;;;5116257;27;20673;-66
2024/01/31 03:33:24;;;;;;;12.93;9.70;;;6.30;99.90;;;;;;5116206;28;20201;-66
2024/01/31 03:35:49;;;;;;;11.93;8.10;;;6.30;99.90;;;;;;5116174;28;20169;-66
2024/01/31 03:38:15;;;;;;;12.00;7.37;;;6.30;99.90;;;;;;5116084;28;20165;-66
2024/01/31 03:40:41;;;;;;;12.40;6.83;;;6.20;99.90;;;;;;5115827;28;20183;-66
2024/01/31 03:43:06;;;;;;;10.30;6.77;;;6.20;99.90;;;;;;5115842;27;20283;-67
2024/01/31 03:45:32;;;;;;;10.30;6.60;;;6.20;99.90;;;;;;5116291;28;20172;-66
2024/01/31 03:47:58;;;;;;;8.60;6.27;;;6.10;99.90;;;;;;5116033;28;20168;-66
2024/01/31 03:50:24;;;;;;;11.97;6.37;;;6.10;99.90;;;;;;5114476;28;20717;-66
2024/01/31 03:52:49;;;;;;;7.60;5.80;;;6.10;99.90;;;;;;5115652;28;20210;-66
2024/01/31 03:55:15;;;;;;;12.40;6.30;;;6.10;99.90;;;;;;5115485;28;20543;-66
2024/01/31 03:57:41;;;;;;;7.60;6.30;;;6.00;99.90;;;;;;5115674;28;20211;-66
2024/01/31 04:00:09;;;;;;;6.67;5.97;;;6.00;99.90;;;;;;5115596;27;20179;-65
2024/01/31 04:02:35;;;;;;;6.97;5.87;;;6.00;99.90;;;;;;5115164;28;20623;-66
2024/01/31 04:05:01;;;;;;;10.43;6.40;;;6.00;99.90;;;;;;5114121;28;20226;-66
2024/01/31 04:07:28;;;;;;;7.67;5.97;;;5.90;99.90;;;;;;5114188;28;20176;-66
2024/01/31 04:09:54;;;;;;;9.00;6.17;;;5.90;99.90;;;;;;5115291;28;20167;-66
2024/01/31 04:12:21;;;;;;;5.93;5.33;;;5.90;99.90;;;;;;5115426;28;20573;-66
2024/01/31 04:14:47;;;;;;;7.20;5.73;;;5.90;99.90;;;;;;5115299;28;20168;-66
2024/01/31 04:17:12;;;;;;;11.37;6.07;;;5.90;99.90;;;;;;5115843;28;20156;-67
2024/01/31 04:19:38;;;;;;;6.30;5.70;;;5.90;99.90;;;;;;5113883;28;20183;-67
2024/01/31 04:22:04;;;;;;;7.27;5.50;;;5.90;99.90;;;;;;5115325;28;20196;-66
2024/01/31 04:24:30;;;;;;;6.87;5.40;;;5.80;99.90;;;;;;5113905;28;20217;-67
2024/01/31 04:26:55;;;;;;;7.33;5.80;;;5.80;99.90;;;;;;5115053;28;20175;-67
2024/01/31 04:29:22;;;;;;;9.13;6.03;;;5.80;99.90;;;;;;5115212;28;20172;-66
2024/01/31 04:31:53;;;;;;;12.07;5.97;;;5.70;99.90;;;;;;5114808;28;20208;-66
2024/01/31 04:34:20;;;;;;;6.80;6.07;;;5.80;99.90;;;;;;5115169;28;20191;-67
2024/01/31 04:36:46;;;;;;;10.93;6.03;;;5.80;99.90;;;;;;5114741;28;20173;-66
2024/01/31 04:39:12;;;;;;;10.43;6.70;;;5.80;99.90;;;;;;5115001;28;20532;-68
2024/01/31 04:41:38;;;;;;;9.00;5.90;;;5.90;99.90;;;;;;5115012;28;20192;-67
2024/01/31 04:44:03;;;;;;;8.50;5.80;;;5.90;99.90;;;;;;5114737;28;20708;-67
2024/01/31 04:46:30;;;;;;;8.73;6.17;;;5.90;99.90;;;;;;5114705;28;20173;-67
2024/01/31 04:48:55;;;;;;;7.10;5.70;;;5.90;99.90;;;;;;5114921;28;20179;-67
2024/01/31 04:51:21;;;;;;;6.53;5.97;;;5.90;99.90;;;;;;5114939;28;20208;-67
2024/01/31 04:53:47;;;;;;;6.17;5.63;;;5.90;99.90;;;;;;5113206;28;20176;-67
2024/01/31 04:56:13;;;;;;;8.57;5.57;;;5.80;99.90;;;;;;5114192;28;20542;-67
2024/01/31 04:58:39;;;;;;;7.30;5.87;;;5.90;99.90;;;;;;5114449;28;20257;-67
2024/01/31 05:01:05;;;;;;;5.80;5.33;;;5.90;99.90;;;;;;5114292;28;20175;-67
2024/01/31 05:03:31;;;;;;;7.13;5.87;;;5.80;99.90;;;;;;5114171;28;20192;-67
2024/01/31 05:05:56;;;;;;;9.10;6.10;;;5.80;99.90;;;;;;5114327;28;20259;-67
2024/01/31 05:08:22;;;;;;;8.00;5.70;;;5.80;99.90;;;;;;5114683;28;20172;-67
2024/01/31 05:10:48;;;;;;;8.40;5.33;;;5.80;99.90;;;;;;5113891;28;20181;-67
2024/01/31 05:13:14;;;;;;;7.67;5.20;;;5.80;99.90;;;;;;5114053;28;20191;-67
2024/01/31 05:15:40;;;;;;;11.10;6.47;;;5.80;99.90;;;;;;5114452;28;20191;-67
2024/01/31 05:18:06;;;;;;;6.53;5.50;;;5.70;99.90;;;;;;5114660;28;20183;-67
2024/01/31 05:20:31;;;;;;;7.67;5.60;;;5.70;99.90;;;;;;5114344;28;20173;-67
2024/01/31 05:22:57;;;;;;;6.33;5.47;;;5.70;99.90;;;;;;5113908;28;20263;-68
2024/01/31 05:25:23;;;;;;;7.97;5.53;;;5.70;99.90;;;;;;5113772;28;20218;-67
2024/01/31 05:27:49;;;;;;;6.07;5.23;;;5.70;99.90;;;;;;5114222;28;20699;-67
2024/01/31 05:30:16;;;;;;;5.90;5.30;;;5.80;99.90;;;;;;5114292;28;20160;-67
2024/01/31 05:32:41;;;;;;;10.73;5.90;;;5.80;99.90;;;;;;5114234;28;20208;-67
2024/01/31 05:35:07;;;;;;;7.50;5.40;;;5.80;99.90;;;;;;5113709;28;20240;-67
2024/01/31 05:37:33;;;;;;;5.43;4.93;;;5.80;99.90;;;;;;5114039;28;20199;-66
2024/01/31 05:39:59;;;;;;;5.80;5.30;;;5.80;99.90;;;;;;5113515;28;20176;-67
2024/01/31 05:42:25;;;;;;;7.47;6.07;;;5.80;99.90;;;;;;5112282;28;20200;-67
2024/01/31 05:44:53;;;;;;;7.63;5.80;;;5.80;99.90;;;;;;5112270;28;20271;-67
2024/01/31 05:47:19;;;;;;;11.10;5.80;;;5.80;99.90;;;;;;5112347;28;20180;-66
2024/01/31 05:49:45;;;;;;;7.17;5.67;;;5.80;99.90;;;;;;5113614;28;20172;-67
2024/01/31 05:52:11;;;;;;;7.13;5.60;;;5.80;99.90;;;;;;5112206;28;20212;-67
2024/01/31 05:54:39;;;;;;;7.00;5.90;;;5.70;99.90;;;;;;5113356;28;20545;-67
2024/01/31 05:57:05;;;;;;;7.37;5.67;;;5.70;99.90;;;;;;5113831;28;20199;-66
2024/01/31 05:59:31;;;;;;;7.83;6.20;;;5.70;99.90;;;;;;5113800;28;20234;-67
2024/01/31 06:01:57;;;;;;;7.43;6.00;;;5.70;99.90;;;;;;5113432;28;20700;-67
2024/01/31 06:04:23;;;;;;;7.80;5.87;;;5.70;99.90;;;;;;5113632;28;20161;-69
2024/01/31 06:06:49;;;;;;;8.50;6.67;;;5.70;99.90;;;;;;5112292;28;20187;-70
2024/01/31 06:09:15;;;;;;;9.23;6.10;;;5.70;99.90;;;;;;5113483;28;20168;-69
2024/01/31 06:11:40;;;;;;;7.70;6.40;;;5.70;99.90;;;;;;5113203;28;20218;-67
2024/01/31 06:14:06;;;;;;;7.43;6.40;;;5.70;99.90;;;;;;5113532;28;20176;-67
2024/01/31 06:16:33;;;;;;;10.47;6.40;;;5.70;99.90;;;;;;5114393;28;20187;-67
2024/01/31 06:19:01;;;;;;;7.90;6.10;;;5.70;99.90;;;;;;5112787;28;20565;-67
2024/01/31 06:21:27;;;;;;;10.43;6.67;;;5.80;99.90;;;;;;5115066;28;20188;-68
2024/01/31 06:23:54;;;;;;;7.87;6.13;;;5.80;99.90;;;;;;5115185;28;20169;-67
2024/01/31 06:26:20;;;;;;;9.77;7.23;;;5.80;99.90;;;;;;5113928;28;20629;-67
2024/01/31 06:28:48;;;;;;;8.87;6.87;;;5.70;99.90;;;;;;5113881;28;20200;-67
2024/01/31 06:31:24;;;;;;;10.23;6.90;;;5.70;99.90;;;;;;5114290;28;20200;-67
2024/01/31 06:33:50;;;;;;;11.27;7.10;;;5.70;99.90;;;;;;5113579;28;20148;-67
2024/01/31 06:36:18;;;;;;;11.27;6.63;;;5.70;99.90;;;;;;5113250;28;20686;-67
2024/01/31 06:38:44;;;;;;;8.50;6.83;;;5.70;99.90;;;;;;5111823;28;20168;-67
2024/01/31 06:41:13;;;;;;;8.30;6.83;;;5.70;99.90;;;;;;5112892;28;20173;-70
2024/01/31 06:43:39;;;;;;;8.63;6.80;;;5.70;99.90;;;;;;5113041;28;20225;-69
2024/01/31 06:46:05;;;;;;;11.60;6.73;;;5.70;99.90;;;;;;5113667;28;20185;-69
2024/01/31 06:48:31;;;;;;;9.30;7.00;;;5.70;99.90;;;;;;5115329;28;20176;-69
2024/01/31 06:50:56;;;;;;;10.70;7.07;;;5.70;99.90;;;;;;5115416;28;20181;-70
2024/01/31 06:53:22;;;;;;;7.83;6.77;;;5.70;99.90;;;;;;5116807;28;20172;-69
2024/01/31 06:55:48;;;;;;;9.47;7.23;;;5.70;99.90;;;;;;5116474;28;20248;-70
2024/01/31 06:58:14;;;;;;;9.30;6.87;;;5.70;99.90;;;;;;5116689;28;20165;-69
2024/01/31 07:00:40;;;;;;;11.30;7.00;;;5.70;99.90;;;;;;5116675;27;20167;-70
2024/01/31 07:03:05;;;;;;;8.80;6.90;;;5.70;99.90;;;;;;5116755;28;20204;-70
2024/01/31 07:05:31;;;;;;;8.33;7.00;;;5.60;99.90;;;;;;5116513;28;20176;-67
2024/01/31 07:07:57;;;;;;;9.40;7.07;;;5.70;99.90;;;;;;5116972;28;20175;-67
2024/01/31 07:10:23;;;;;;;7.07;6.33;;;5.70;99.90;;;;;;5116168;28;20188;-67
2024/01/31 07:12:52;;;;;;;11.30;7.43;;;5.70;99.90;;;;;;5116154;28;20334;-67
2024/01/31 07:15:21;;;;;;;12.67;7.40;;;5.70;99.90;;;;;;5116120;28;20168;-67
2024/01/31 07:17:47;;;;;;;11.87;6.80;;;5.70;99.90;;;;;;5116541;28;20513;-67
2024/01/31 07:20:13;;;;;;;7.90;6.93;;;5.70;99.90;;;;;;5116448;28;20183;-67
2024/01/31 07:22:39;;;;;;;11.00;7.50;;;5.70;99.90;;;;;;5116389;28;20192;-69
2024/01/31 07:25:10;;;;;;;10.40;7.03;;;5.70;99.90;;;;;;5114568;28;20198;-69
2024/01/31 07:27:40;;;;;;;9.20;7.57;;;5.80;99.90;;;;;;5116142;28;20509;-69
2024/01/31 07:30:11;;;;;;;11.27;7.43;;;5.80;99.90;;;;;;5116019;28;20160;-69
2024/01/31 07:32:40;;;;;;;10.73;8.23;;;5.80;99.90;;;;;;5114535;28;20233;-68
2024/01/31 07:35:07;;;;;;;11.50;8.03;;;5.80;99.90;;;;;;5116637;28;20160;-68
2024/01/31 07:37:35;;;;;;;12.20;7.97;;;5.80;99.90;;;;;;5116097;28;20252;-68
2024/01/31 07:40:01;;;;;;;11.50;8.80;;;5.80;99.90;;;;;;5114403;28;20184;-68
2024/01/31 07:42:27;;;;;;;9.90;7.53;;;5.80;99.90;;;;;;5116001;28;20200;-68
2024/01/31 07:44:54;;;;;;;11.40;8.73;;;5.80;99.90;;;;;;5115909;28;20168;-68
2024/01/31 07:47:20;;;;;;;11.17;7.90;;;5.90;99.90;;;;;;5115745;28;20650;-69
2024/01/31 07:49:46;;;;;;;13.80;8.07;;;5.90;99.90;;;;;;5116092;28;20191;-68
2024/01/31 07:52:12;;;;;;;12.20;8.60;;;5.90;99.90;;;;;;5114206;28;20212;-69
2024/01/31 07:54:37;;;;;;;10.63;8.40;;;5.90;99.90;;;;;;5115611;28;20164;-69
2024/01/31 07:57:03;;;;;;;16.00;9.10;;;5.90;99.90;;;;;;5113916;28;20657;-69
2024/01/31 07:59:29;;;;;;;14.60;9.53;;;6.00;99.90;;;;;;5112915;28;20188;-69
2024/01/31 08:01:55;;;;;;;16.93;9.23;;;6.00;99.90;;;;;;5113870;28;20203;-68
2024/01/31 08:04:21;;;;;;;13.63;9.37;;;6.00;99.90;;;;;;5115798;28;20192;-69
2024/01/31 08:06:47;;;;;;;16.17;10.50;;;6.00;99.90;;;;;;5115879;28;20176;-69
2024/01/31 08:09:15;;;;;;;14.77;9.47;;;6.00;99.90;;;;;;5115744;28;20173;-69
2024/01/31 08:11:44;;;;;;;13.20;10.30;;;6.00;99.90;;;;;;5114863;28;20204;-69
2024/01/31 08:14:11;;;;;;;16.47;10.77;;;6.00;99.90;;;;;;5115066;28;20221;-69
2024/01/31 08:16:37;;;;;;;15.07;11.13;;;6.00;99.90;;;;;;5115159;28;20168;-68
2024/01/31 08:19:04;;;;;;;16.63;11.53;;;6.10;99.90;;;;;;5113725;28;20176;-69
2024/01/31 08:21:33;;;;;;;17.27;11.83;;;6.10;99.90;;;;;;5113609;28;20197;-69
2024/01/31 08:24:00;;;;;;;18.03;10.77;;;6.10;99.90;;;;;;5114894;28;20169;-71
2024/01/31 08:26:26;;;;;;;16.97;11.23;;;6.10;99.90;;;;;;5114674;28;20641;-71
2024/01/31 08:28:51;;;;;;;15.87;11.13;;;6.10;99.90;;;;;;5113549;28;20184;-71
2024/01/31 08:31:17;;;;;;;21.30;11.23;;;6.10;99.90;;;;;;5114699;27;21976;-71
2024/01/31 08:33:44;;;;;;;20.87;12.50;;;6.10;99.90;;;;;;5113418;28;20224;-71
2024/01/31 08:36:09;;;;;;;18.30;12.63;;;6.10;99.90;;;;;;5114852;28;20642;-71
2024/01/31 08:38:40;;;;;;;19.80;12.80;;;6.10;99.90;;;;;;5114959;28;20169;-71
2024/01/31 08:41:06;;;;;;;19.10;12.53;;;6.00;99.90;;;;;;5114392;28;20633;-71
2024/01/31 08:43:32;;;;;;;19.53;12.93;;;6.10;99.90;;;;;;5114967;28;20172;-71
2024/01/31 08:45:57;;;;;;;22.30;14.20;;;6.10;99.90;;;;;;5114695;28;20626;-71
2024/01/31 08:48:23;;;;;;;22.93;14.67;;;6.10;99.90;;;;;;5113588;28;20173;-72
2024/01/31 08:50:49;;;;;;;20.93;13.43;;;6.00;99.90;;;;;;5114428;28;20173;-71
2024/01/31 08:53:15;;;;;;;21.13;14.63;;;6.10;99.90;;;;;;5114225;28;20234;-71
2024/01/31 08:55:40;;;;;;;19.27;13.17;;;6.10;99.90;;;;;;5114145;28;20518;-71
2024/01/31 08:58:06;;;;;;;21.60;13.07;;;6.10;99.90;;;;;;5114265;28;20602;-71
2024/01/31 09:00:32;;;;;;;17.33;12.40;;;6.10;99.90;;;;;;5114569;27;20641;-71
2024/01/31 09:02:58;;;;;;;13.90;10.17;;;6.10;99.90;;;;;;5114123;28;20207;-71
2024/01/31 09:05:23;;;;;;;13.13;11.17;;;6.10;99.90;;;;;;5114217;28;20247;-71
2024/01/31 09:07:49;;;;;;;11.87;10.10;;;6.10;99.90;;;;;;5114255;28;20214;-71
2024/01/31 09:10:15;;;;;;;11.33;9.50;;;6.20;99.90;;;;;;5113475;28;20172;-71
2024/01/31 09:12:41;;;;;;;11.77;8.80;;;6.20;99.90;;;;;;5114051;28;20208;-71
2024/01/31 09:15:07;;;;;;;11.60;8.60;;;6.20;99.90;;;;;;5112686;28;20172;-71
2024/01/31 09:17:33;;;;;;;9.20;8.30;;;6.20;99.90;;;;;;5114229;28;20164;-71
2024/01/31 09:19:59;;;;;;;13.43;8.70;;;6.20;99.90;;;;;;5113947;28;20172;-71
2024/01/31 09:22:24;;;;;;;8.77;7.60;;;6.20;62.00;;;;;;5112596;28;20196;-71
2024/01/31 09:24:50;;;;;;;8.37;6.90;;;6.30;1.20;;;;;;5114429;28;20168;-71
2024/01/31 09:27:19;;;;;;;7.93;6.80;;;6.30;1.00;;;;;;5112350;28;20259;-71
2024/01/31 09:29:48;;;;;;;7.87;6.43;;;6.40;1.00;;;;;;5113906;28;20168;-69
2024/01/31 09:32:14;;;;;;;9.20;7.07;;;6.40;1.00;;;;;;5112275;28;20227;-69
2024/01/31 09:34:41;;;;;;;8.03;7.03;;;6.40;1.00;;;;;;5113798;28;20169;-69
2024/01/31 09:37:07;;;;;;;8.07;7.27;;;6.40;1.00;;;;;;5114004;28;20164;-69
2024/01/31 09:39:33;;;;;;;11.40;8.43;;;6.40;1.00;;;;;;5113683;28;20278;-69
2024/01/31 09:41:59;;;;;;;9.83;8.57;;;6.40;1.00;;;;;;5113282;28;20246;-68
2024/01/31 09:44:25;;;;;;;14.30;10.00;;;6.40;23.40;;;;;;5113852;28;20648;-68
2024/01/31 09:46:53;;;;;;;14.23;10.20;;;6.40;98.70;;;;;;5112396;28;20180;-67
2024/01/31 09:49:18;;;;;;;13.03;9.80;;;6.40;99.90;;;;;;5112308;28;20180;-67
2024/01/31 09:51:44;;;;;;;10.63;9.10;;;6.40;92.50;;;;;;5113362;28;20254;-67
2024/01/31 09:54:10;;;;;;;11.80;8.80;;;6.30;4.20;;;;;;5113576;28;20202;-67
2024/01/31 09:56:36;;;;;;;11.27;9.30;;;6.30;2.60;;;;;;5113276;28;20169;-67
2024/01/31 09:59:03;;;;;;;11.33;8.67;;;6.40;13.30;;;;;;5113475;28;20167;-67
2024/01/31 10:01:29;;;;;;;13.47;9.47;;;6.40;1.00;;;;;;5113406;28;20677;-68
2024/01/31 10:03:57;;;;;;;11.13;8.63;;;6.40;8.60;;;;;;5112096;28;20198;-68
2024/01/31 10:06:24;;;;;;;11.60;8.90;;;6.50;24.30;;;;;;5113478;28;20539;-68
2024/01/31 10:08:50;;;;;;;11.60;8.77;;;6.50;36.00;;;;;;5114132;28;20232;-68
2024/01/31 10:11:16;;;;;;;19.77;10.33;;;6.50;50.20;;;;;;5112958;28;20284;-67
2024/01/31 10:13:42;;;;;;;15.17;10.17;;;6.50;26.80;;;;;;5113595;28;20176;-67
2024/01/31 10:16:07;;;;;;;13.50;9.17;;;6.40;6.30;;;;;;5113331;28;20217;-68
2024/01/31 10:18:33;;;;;;;12.10;8.87;;;6.50;45.20;;;;;;5113262;28;20172;-68
2024/01/31 10:20:59;;;;;;;10.33;8.40;;;6.50;1.00;;;;;;5113596;28;20178;-70
2024/01/31 10:23:25;;;;;;;12.17;7.93;;;6.50;1.00;;;;;;5114160;28;20192;-70
2024/01/31 10:25:52;;;;;;;11.10;7.90;;;6.50;1.00;;;;;;5117375;28;20153;-70
2024/01/31 10:28:21;;;;;;;13.47;8.77;;;6.50;1.00;;;;;;5117209;28;20196;-70
2024/01/31 10:30:48;;;;;;;8.90;6.90;;;6.50;1.00;;;;;;5116119;28;20525;-71
2024/01/31 10:33:14;;;;;;;8.00;7.10;;;6.60;5.80;;;;;;5117032;28;20188;-68
2024/01/31 10:35:45;;;;;;;9.50;7.00;;;6.60;6.10;;;;;;5115780;28;20173;-68
2024/01/31 10:38:13;;;;;;;7.40;6.70;;;6.60;13.20;;;;;;5116988;28;20622;-68
2024/01/31 10:40:41;;;;;;;8.97;6.70;;;6.70;2.70;;;;;;5116937;28;20633;-68
2024/01/31 10:43:09;;;;;;;10.50;7.47;;;6.70;1.00;;;;;;5116802;28;20670;-68
2024/01/31 10:45:35;;;;;;;10.37;7.47;;;6.70;1.00;;;;;;5116858;28;20177;-67
2024/01/31 10:48:04;;;;;;;10.20;7.20;;;6.70;1.00;;;;;;5117377;28;20164;-69
2024/01/31 10:50:31;;;;;;;9.93;7.83;;;6.80;1.00;;;;;;5116831;28;20548;-69
2024/01/31 10:52:58;;;;;;;10.47;7.73;;;6.80;1.00;;;;;;5116637;28;20250;-69
2024/01/31 10:55:24;;;;;;;12.63;8.20;;;6.80;1.00;;;;;;5115473;28;20590;-69
2024/01/31 10:57:50;;;;;;;11.20;8.30;;;6.80;1.00;;;;;;5116655;28;20514;-68
2024/01/31 11:00:28;;;;;;;11.67;8.23;;;6.90;1.00;;;;;;5116935;28;20176;-69
2024/01/31 11:02:56;;;;;;;11.10;7.83;;;6.90;1.00;;;;;;5116392;28;20252;-69
2024/01/31 11:05:24;;;;;;;14.80;8.80;;;6.90;1.00;;;;;;5116501;28;20542;-69
2024/01/31 11:07:50;;;;;;;14.17;9.03;;;6.90;1.00;;;;;;5115174;28;20176;-69
2024/01/31 11:10:21;;;;;;;12.20;8.77;;;7.00;1.00;;;;;;5116660;28;20164;-69
2024/01/31 11:13:01;;;;;;;12.23;8.97;;;7.00;12.90;;;;;;5116326;28;20200;-69
2024/01/31 11:15:34;;;;;;;14.70;9.20;;;7.00;1.00;;;;;;5115036;28;20589;-69
2024/01/31 11:18:11;;;;;;;19.37;12.40;;;7.00;1.00;;;;;;5114972;28;20264;-69
2024/01/31 11:20:49;;;;;;;16.13;10.63;;;6.90;1.00;;;;;;5115039;28;20251;-68
2024/01/31 11:23:25;;;;;;;18.83;10.97;;;6.90;1.00;;;;;;5116242;28;20219;-69
2024/01/31 11:25:52;;;;;;;16.50;11.77;;;6.90;1.00;;;;;;5116181;28;20622;-69
2024/01/31 11:28:19;;;;;;;14.53;11.17;;;6.90;1.00;;;;;;5116231;28;20167;-69
2024/01/31 11:30:54;;;;;;;19.03;11.57;;;6.90;1.00;;;;;;5116282;28;20173;-69
2024/01/31 11:33:21;;;;;;;17.87;12.27;;;7.00;1.00;;;;;;5115967;28;20192;-69
2024/01/31 11:35:47;;;;;;;17.00;11.77;;;7.00;5.20;;;;;;5116821;28;20164;-69
2024/01/31 11:38:13;;;;;;;20.13;12.70;;;7.00;8.90;;;;;;5116199;28;20172;-69
2024/01/31 11:40:39;;;;;;;19.60;12.93;;;7.10;24.90;;;;;;5117338;28;20247;-68
2024/01/31 11:43:05;;;;;;;16.53;12.93;;;7.00;1.00;;;;;;5115328;28;20277;-69
2024/01/31 11:45:31;;;;;;;19.47;13.37;;;7.00;24.70;;;;;;5116139;28;20156;-69
2024/01/31 11:47:58;;;;;;;21.27;14.03;;;7.00;1.00;;;;;;5114720;28;20171;-69
2024/01/31 11:50:27;;;;;;;21.03;13.63;;;7.00;1.00;;;;;;5114547;28;20204;-69
2024/01/31 11:52:54;;;;;;;23.00;13.60;;;7.00;1.00;;;;;;5115438;28;20208;-69
2024/01/31 11:55:25;;;;;;;22.13;13.97;;;7.00;40.30;;;;;;5115943;28;20157;-69
2024/01/31 11:57:50;;;;;;;25.17;14.90;;;7.00;75.30;;;;;;5115251;28;20206;-68
2024/01/31 12:00:16;;;;;;;23.77;13.97;;;7.00;90.00;;;;;;5115410;28;20177;-69
2024/01/31 12:02:44;;;;;;;25.87;14.83;;;7.00;99.90;;;;;;5115547;28;20208;-69
2024/01/31 12:05:10;;;;;;;22.40;14.47;;;7.00;99.90;;;;;;5115397;28;20179;-69
2024/01/31 12:07:36;;;;;;;25.73;16.40;;;7.00;99.90;;;;;;5115606;28;20536;-69
2024/01/31 12:10:03;;;;;;;21.70;14.97;;;7.00;99.90;;;;;;5115167;28;20176;-69
2024/01/31 12:12:31;;;;;;;24.97;16.07;;;7.00;99.90;;;;;;5113544;28;20693;-69
2024/01/31 12:14:57;;;;;;;25.93;15.43;;;7.00;99.90;;;;;;5113871;28;20258;-69
2024/01/31 12:17:24;;;;;;;28.13;15.27;;;7.00;99.90;;;;;;5115325;28;20161;-69
2024/01/31 12:20:05;;;;;;;25.60;15.30;;;7.00;99.90;;;;;;5115366;28;20164;-68
2024/01/31 12:22:33;;;;;;;25.53;16.00;;;7.00;99.90;;;;;;5115228;28;20202;-69
2024/01/31 12:25:01;;;;;;;28.43;15.40;;;7.00;99.90;;;;;;5115086;28;20169;-69
2024/01/31 12:27:27;;;;;;;25.83;15.27;;;7.00;99.90;;;;;;5114666;28;20187;-69
2024/01/31 12:29:53;;;;;;;26.07;14.97;;;7.00;99.90;;;;;;5115054;28;20156;-69
2024/01/31 12:32:18;;;;;;;25.90;15.70;;;7.00;99.90;;;;;;5113403;28;20209;-69
2024/01/31 12:34:44;;;;;;;24.90;15.00;;;7.00;99.90;;;;;;5114862;28;20543;-68
2024/01/31 12:37:10;;;;;;;22.70;14.57;;;6.90;99.90;;;;;;5114866;28;20164;-69
2024/01/31 12:39:36;;;;;;;22.90;13.80;;;6.90;99.90;;;;;;5114949;28;20214;-69
2024/01/31 12:42:03;;;;;;;19.37;13.33;;;6.90;99.90;;;;;;5112981;28;20580;-69
2024/01/31 12:44:29;;;;;;;21.43;13.80;;;6.90;99.90;;;;;;5114459;28;20200;-69